sensor_id;sensor_type;location;lat;lon;timestamp;P1;durP1;ratioP1;P2;durP2;ratioP2
31238;SDS011;17871;31.584;74.450;2023-04-15T00:02:15;40.33;;;17.10;;
31238;SDS011;17871;31.584;74.450;2023-04-15T00:04:49;42.47;;;16.70;;
31238;SDS011;17871;31.584;74.450;2023-04-15T00:07:22;46.83;;;18.38;;
31238;SDS011;17871;31.584;74.450;2023-04-15T00:09:55;47.63;;;19.23;;
31238;SDS011;17871;31.584;74.450;2023-04-15T00:12:28;48.63;;;19.65;;
31238;SDS011;17871;31.584;74.450;2023-04-15T00:15:00;58.35;;;19.17;;
31238;SDS011;17871;31.584;74.450;2023-04-15T00:17:33;68.28;;;21.63;;
31238;SDS011;17871;31.584;74.450;2023-04-15T00:20:06;63.80;;;20.83;;
31238;SDS011;17871;31.584;74.450;2023-04-15T00:22:39;62.22;;;20.90;;
31238;SDS011;17871;31.584;74.450;2023-04-15T00:25:11;49.38;;;21.67;;
31238;SDS011;17871;31.584;74.450;2023-04-15T00:27:45;56.60;;;21.70;;
31238;SDS011;17871;31.584;74.450;2023-04-15T00:30:18;67.43;;;23.98;;
31238;SDS011;17871;31.584;74.450;2023-04-15T00:32:49;72.22;;;23.92;;
31238;SDS011;17871;31.584;74.450;2023-04-15T00:35:23;48.78;;;23.52;;
31238;SDS011;17871;31.584;74.450;2023-04-15T00:42:18;57.20;;;24.02;;
31238;SDS011;17871;31.584;74.450;2023-04-15T00:44:50;63.80;;;23.42;;
31238;SDS011;17871;31.584;74.450;2023-04-15T00:47:21;71.00;;;26.27;;
31238;SDS011;17871;31.584;74.450;2023-04-15T00:49:55;83.65;;;24.98;;
31238;SDS011;17871;31.584;74.450;2023-04-15T00:52:27;76.13;;;27.30;;
31238;SDS011;17871;31.584;74.450;2023-04-15T00:55:00;69.85;;;27.30;;
31238;SDS011;17871;31.584;74.450;2023-04-15T00:57:35;75.90;;;28.48;;
31238;SDS011;17871;31.584;74.450;2023-04-15T01:04:01;86.00;;;33.60;;
31238;SDS011;17871;31.584;74.450;2023-04-15T01:06:34;99.38;;;36.60;;
31238;SDS011;17871;31.584;74.450;2023-04-15T01:09:09;90.88;;;36.25;;
31238;SDS011;17871;31.584;74.450;2023-04-15T01:11:42;103.57;;;39.85;;
31238;SDS011;17871;31.584;74.450;2023-04-15T01:14:17;117.82;;;46.15;;
31238;SDS011;17871;31.584;74.450;2023-04-15T01:16:51;141.55;;;55.75;;
31238;SDS011;17871;31.584;74.450;2023-04-15T01:19:24;146.52;;;55.35;;
31238;SDS011;17871;31.584;74.450;2023-04-15T01:21:57;114.35;;;49.58;;
31238;SDS011;17871;31.584;74.450;2023-04-15T01:24:32;115.05;;;48.88;;
31238;SDS011;17871;31.584;74.450;2023-04-15T01:27:06;157.85;;;60.30;;
31238;SDS011;17871;31.584;74.450;2023-04-15T01:29:40;144.77;;;54.92;;
31238;SDS011;17871;31.584;74.450;2023-04-15T01:32:14;118.60;;;46.15;;
31238;SDS011;17871;31.584;74.450;2023-04-15T01:34:47;122.25;;;42.38;;
31238;SDS011;17871;31.584;74.450;2023-04-15T01:37:23;102.65;;;38.55;;
31238;SDS011;17871;31.584;74.450;2023-04-15T01:39:55;93.68;;;37.60;;
31238;SDS011;17871;31.584;74.450;2023-04-15T01:42:28;94.78;;;34.42;;
31238;SDS011;17871;31.584;74.450;2023-04-15T01:45:03;75.53;;;31.58;;
31238;SDS011;17871;31.584;74.450;2023-04-15T01:47:37;71.95;;;30.10;;
31238;SDS011;17871;31.584;74.450;2023-04-15T01:50:12;74.75;;;29.38;;
31238;SDS011;17871;31.584;74.450;2023-04-15T01:52:47;74.18;;;28.88;;
31238;SDS011;17871;31.584;74.450;2023-04-15T01:55:20;81.22;;;28.75;;
31238;SDS011;17871;31.584;74.450;2023-04-15T01:57:53;65.70;;;26.20;;
31238;SDS011;17871;31.584;74.450;2023-04-15T02:00:26;66.57;;;26.95;;
31238;SDS011;17871;31.584;74.450;2023-04-15T02:03:01;69.70;;;26.73;;
31238;SDS011;17871;31.584;74.450;2023-04-15T02:05:34;62.00;;;26.23;;
31238;SDS011;17871;31.584;74.450;2023-04-15T02:08:07;65.55;;;24.63;;
31238;SDS011;17871;31.584;74.450;2023-04-15T02:10:40;60.40;;;24.08;;
31238;SDS011;17871;31.584;74.450;2023-04-15T02:13:14;80.82;;;26.70;;
31238;SDS011;17871;31.584;74.450;2023-04-15T02:15:48;56.10;;;23.48;;
31238;SDS011;17871;31.584;74.450;2023-04-15T02:18:22;62.17;;;22.70;;
31238;SDS011;17871;31.584;74.450;2023-04-15T02:20:54;59.60;;;21.52;;
31238;SDS011;17871;31.584;74.450;2023-04-15T02:23:29;75.57;;;23.15;;
31238;SDS011;17871;31.584;74.450;2023-04-15T02:26:03;53.17;;;22.95;;
31238;SDS011;17871;31.584;74.450;2023-04-15T02:28:35;61.97;;;22.80;;
31238;SDS011;17871;31.584;74.450;2023-04-15T02:31:08;51.75;;;22.58;;
31238;SDS011;17871;31.584;74.450;2023-04-15T02:33:42;73.43;;;25.40;;
31238;SDS011;17871;31.584;74.450;2023-04-15T02:36:15;60.42;;;22.95;;
31238;SDS011;17871;31.584;74.450;2023-04-15T02:38:49;68.45;;;23.60;;
31238;SDS011;17871;31.584;74.450;2023-04-15T02:41:22;68.72;;;26.23;;
31238;SDS011;17871;31.584;74.450;2023-04-15T02:43:58;68.80;;;26.20;;
31238;SDS011;17871;31.584;74.450;2023-04-15T02:46:30;73.57;;;24.27;;
31238;SDS011;17871;31.584;74.450;2023-04-15T02:49:04;74.00;;;23.02;;
31238;SDS011;17871;31.584;74.450;2023-04-15T02:51:37;62.63;;;23.33;;
31238;SDS011;17871;31.584;74.450;2023-04-15T02:54:10;76.78;;;26.27;;
31238;SDS011;17871;31.584;74.450;2023-04-15T02:56:42;79.72;;;25.67;;
31238;SDS011;17871;31.584;74.450;2023-04-15T02:59:16;68.72;;;27.67;;
31238;SDS011;17871;31.584;74.450;2023-04-15T03:01:49;57.97;;;24.23;;
31238;SDS011;17871;31.584;74.450;2023-04-15T03:04:19;72.13;;;25.48;;
31238;SDS011;17871;31.584;74.450;2023-04-15T03:06:48;72.80;;;26.92;;
31238;SDS011;17871;31.584;74.450;2023-04-15T03:09:17;61.70;;;27.08;;
31238;SDS011;17871;31.584;74.450;2023-04-15T03:11:46;65.50;;;26.48;;
31238;SDS011;17871;31.584;74.450;2023-04-15T03:14:16;78.38;;;26.40;;
31238;SDS011;17871;31.584;74.450;2023-04-15T03:16:46;62.50;;;26.30;;
31238;SDS011;17871;31.584;74.450;2023-04-15T03:19:17;74.53;;;26.02;;
31238;SDS011;17871;31.584;74.450;2023-04-15T03:21:47;74.22;;;26.58;;
31238;SDS011;17871;31.584;74.450;2023-04-15T03:24:17;75.53;;;28.08;;
31238;SDS011;17871;31.584;74.450;2023-04-15T03:26:48;74.07;;;29.30;;
31238;SDS011;17871;31.584;74.450;2023-04-15T03:29:17;67.32;;;26.55;;
31238;SDS011;17871;31.584;74.450;2023-04-15T03:31:47;65.65;;;26.60;;
31238;SDS011;17871;31.584;74.450;2023-04-15T03:34:16;190.55;;;36.35;;
31238;SDS011;17871;31.584;74.450;2023-04-15T03:36:45;68.93;;;26.92;;
31238;SDS011;17871;31.584;74.450;2023-04-15T03:39:15;75.90;;;29.83;;
31238;SDS011;17871;31.584;74.450;2023-04-15T03:41:44;70.63;;;30.75;;
31238;SDS011;17871;31.584;74.450;2023-04-15T03:44:13;75.15;;;30.70;;
31238;SDS011;17871;31.584;74.450;2023-04-15T03:46:43;60.53;;;29.15;;
31238;SDS011;17871;31.584;74.450;2023-04-15T03:49:12;60.88;;;27.70;;
31238;SDS011;17871;31.584;74.450;2023-04-15T03:51:42;71.15;;;26.85;;
31238;SDS011;17871;31.584;74.450;2023-04-15T03:54:12;74.05;;;24.75;;
31238;SDS011;17871;31.584;74.450;2023-04-15T03:56:42;56.70;;;23.63;;
31238;SDS011;17871;31.584;74.450;2023-04-15T03:59:11;57.00;;;24.65;;
31238;SDS011;17871;31.584;74.450;2023-04-15T04:01:40;63.08;;;23.52;;
31238;SDS011;17871;31.584;74.450;2023-04-15T04:04:10;61.25;;;19.30;;
31238;SDS011;17871;31.584;74.450;2023-04-15T04:06:39;66.10;;;19.60;;
31238;SDS011;17871;31.584;74.450;2023-04-15T04:09:09;55.72;;;19.35;;
31238;SDS011;17871;31.584;74.450;2023-04-15T04:11:38;58.55;;;17.65;;
31238;SDS011;17871;31.584;74.450;2023-04-15T04:14:07;56.25;;;17.98;;
31238;SDS011;17871;31.584;74.450;2023-04-15T04:16:37;61.03;;;18.70;;
31238;SDS011;17871;31.584;74.450;2023-04-15T04:19:07;46.38;;;18.00;;
31238;SDS011;17871;31.584;74.450;2023-04-15T04:21:36;46.15;;;16.05;;
31238;SDS011;17871;31.584;74.450;2023-04-15T04:24:06;49.53;;;17.90;;
31238;SDS011;17871;31.584;74.450;2023-04-15T04:26:35;47.17;;;17.73;;
31238;SDS011;17871;31.584;74.450;2023-04-15T04:29:05;36.50;;;15.70;;
31238;SDS011;17871;31.584;74.450;2023-04-15T04:31:34;44.25;;;17.30;;
31238;SDS011;17871;31.584;74.450;2023-04-15T04:34:04;41.33;;;14.75;;
31238;SDS011;17871;31.584;74.450;2023-04-15T04:36:33;45.17;;;14.15;;
31238;SDS011;17871;31.584;74.450;2023-04-15T04:39:02;45.20;;;15.15;;
31238;SDS011;17871;31.584;74.450;2023-04-15T04:41:32;35.70;;;13.68;;
31238;SDS011;17871;31.584;74.450;2023-04-15T04:44:01;46.17;;;15.93;;
31238;SDS011;17871;31.584;74.450;2023-04-15T04:46:31;38.75;;;13.73;;
31238;SDS011;17871;31.584;74.450;2023-04-15T04:49:00;36.78;;;13.68;;
31238;SDS011;17871;31.584;74.450;2023-04-15T04:51:30;37.03;;;14.10;;
31238;SDS011;17871;31.584;74.450;2023-04-15T04:53:59;50.38;;;15.02;;
31238;SDS011;17871;31.584;74.450;2023-04-15T04:56:30;31.58;;;14.13;;
31238;SDS011;17871;31.584;74.450;2023-04-15T04:58:59;60.30;;;14.07;;
31238;SDS011;17871;31.584;74.450;2023-04-15T05:01:29;53.50;;;15.70;;
31238;SDS011;17871;31.584;74.450;2023-04-15T05:03:58;46.35;;;13.93;;
31238;SDS011;17871;31.584;74.450;2023-04-15T05:06:28;44.13;;;14.02;;
31238;SDS011;17871;31.584;74.450;2023-04-15T05:08:58;55.13;;;14.88;;
31238;SDS011;17871;31.584;74.450;2023-04-15T05:11:29;34.72;;;13.82;;
31238;SDS011;17871;31.584;74.450;2023-04-15T05:13:58;39.53;;;13.15;;
31238;SDS011;17871;31.584;74.450;2023-04-15T05:16:29;50.50;;;14.52;;
31238;SDS011;17871;31.584;74.450;2023-04-15T05:18:59;25.60;;;11.80;;
31238;SDS011;17871;31.584;74.450;2023-04-15T05:21:28;32.78;;;11.20;;
31238;SDS011;17871;31.584;74.450;2023-04-15T05:23:58;49.42;;;13.15;;
31238;SDS011;17871;31.584;74.450;2023-04-15T05:26:28;31.33;;;10.85;;
31238;SDS011;17871;31.584;74.450;2023-04-15T05:28:57;37.33;;;12.15;;
31238;SDS011;17871;31.584;74.450;2023-04-15T05:31:27;29.63;;;11.48;;
31238;SDS011;17871;31.584;74.450;2023-04-15T05:33:56;27.30;;;11.02;;
31238;SDS011;17871;31.584;74.450;2023-04-15T05:36:25;37.13;;;10.70;;
31238;SDS011;17871;31.584;74.450;2023-04-15T05:38:55;33.97;;;10.45;;
31238;SDS011;17871;31.584;74.450;2023-04-15T05:41:25;37.35;;;10.73;;
31238;SDS011;17871;31.584;74.450;2023-04-15T05:43:54;34.65;;;11.45;;
31238;SDS011;17871;31.584;74.450;2023-04-15T05:46:23;44.28;;;16.90;;
31238;SDS011;17871;31.584;74.450;2023-04-15T05:48:52;20.52;;;11.20;;
31238;SDS011;17871;31.584;74.450;2023-04-15T05:51:24;33.28;;;10.63;;
31238;SDS011;17871;31.584;74.450;2023-04-15T05:53:54;31.20;;;8.60;;
31238;SDS011;17871;31.584;74.450;2023-04-15T05:56:23;40.38;;;9.63;;
31238;SDS011;17871;31.584;74.450;2023-04-15T05:58:54;41.78;;;11.40;;
31238;SDS011;17871;31.584;74.450;2023-04-15T06:01:23;27.77;;;9.43;;
31238;SDS011;17871;31.584;74.450;2023-04-15T06:03:53;19.20;;;7.70;;
31238;SDS011;17871;31.584;74.450;2023-04-15T06:06:22;22.00;;;7.07;;
31238;SDS011;17871;31.584;74.450;2023-04-15T06:08:52;44.42;;;9.60;;
31238;SDS011;17871;31.584;74.450;2023-04-15T06:11:23;38.95;;;14.75;;
31238;SDS011;17871;31.584;74.450;2023-04-15T06:13:54;18.17;;;7.37;;
31238;SDS011;17871;31.584;74.450;2023-04-15T06:16:23;33.80;;;7.50;;
31238;SDS011;17871;31.584;74.450;2023-04-15T06:18:53;24.27;;;7.47;;
31238;SDS011;17871;31.584;74.450;2023-04-15T06:21:22;23.23;;;6.90;;
31238;SDS011;17871;31.584;74.450;2023-04-15T06:23:51;18.67;;;6.18;;
31238;SDS011;17871;31.584;74.450;2023-04-15T06:26:21;18.23;;;6.30;;
31238;SDS011;17871;31.584;74.450;2023-04-15T06:28:50;29.42;;;5.75;;
31238;SDS011;17871;31.584;74.450;2023-04-15T06:31:20;27.30;;;6.05;;
31238;SDS011;17871;31.584;74.450;2023-04-15T06:33:49;30.15;;;5.57;;
31238;SDS011;17871;31.584;74.450;2023-04-15T06:36:18;27.33;;;5.45;;
31238;SDS011;17871;31.584;74.450;2023-04-15T06:38:48;21.92;;;6.22;;
31238;SDS011;17871;31.584;74.450;2023-04-15T06:41:17;34.25;;;6.28;;
31238;SDS011;17871;31.584;74.450;2023-04-15T06:43:46;23.92;;;5.07;;
31238;SDS011;17871;31.584;74.450;2023-04-15T06:46:16;19.08;;;5.18;;
31238;SDS011;17871;31.584;74.450;2023-04-15T06:48:45;26.27;;;5.53;;
31238;SDS011;17871;31.584;74.450;2023-04-15T06:51:14;29.50;;;6.22;;
31238;SDS011;17871;31.584;74.450;2023-04-15T06:53:44;28.90;;;6.28;;
31238;SDS011;17871;31.584;74.450;2023-04-15T06:56:13;20.80;;;4.57;;
31238;SDS011;17871;31.584;74.450;2023-04-15T07:02:31;23.75;;;4.85;;
31238;SDS011;17871;31.584;74.450;2023-04-15T07:05:01;15.35;;;4.93;;
31238;SDS011;17871;31.584;74.450;2023-04-15T07:07:30;19.90;;;5.03;;
31238;SDS011;17871;31.584;74.450;2023-04-15T07:09:59;17.35;;;5.13;;
31238;SDS011;17871;31.584;74.450;2023-04-15T07:12:30;17.03;;;4.87;;
31238;SDS011;17871;31.584;74.450;2023-04-15T07:15:00;22.55;;;5.30;;
31238;SDS011;17871;31.584;74.450;2023-04-15T07:17:29;40.55;;;6.47;;
31238;SDS011;17871;31.584;74.450;2023-04-15T07:19:59;23.70;;;4.68;;
31238;SDS011;17871;31.584;74.450;2023-04-15T07:22:28;23.60;;;4.82;;
31238;SDS011;17871;31.584;74.450;2023-04-15T07:25:04;18.95;;;4.55;;
31238;SDS011;17871;31.584;74.450;2023-04-15T07:27:38;24.77;;;5.95;;
31238;SDS011;17871;31.584;74.450;2023-04-15T07:30:07;18.95;;;6.00;;
31238;SDS011;17871;31.584;74.450;2023-04-15T07:32:37;33.78;;;6.10;;
31238;SDS011;17871;31.584;74.450;2023-04-15T07:35:07;19.80;;;5.30;;
31238;SDS011;17871;31.584;74.450;2023-04-15T07:37:36;17.60;;;4.40;;
31238;SDS011;17871;31.584;74.450;2023-04-15T07:40:06;23.85;;;6.47;;
31238;SDS011;17871;31.584;74.450;2023-04-15T07:42:36;24.15;;;4.95;;
31238;SDS011;17871;31.584;74.450;2023-04-15T07:45:07;23.90;;;6.03;;
31238;SDS011;17871;31.584;74.450;2023-04-15T07:47:37;26.95;;;4.30;;
31238;SDS011;17871;31.584;74.450;2023-04-15T07:50:08;35.92;;;6.00;;
31238;SDS011;17871;31.584;74.450;2023-04-15T07:52:38;20.33;;;5.28;;
31238;SDS011;17871;31.584;74.450;2023-04-15T07:55:07;23.25;;;5.18;;
31238;SDS011;17871;31.584;74.450;2023-04-15T07:57:37;22.67;;;5.72;;
31238;SDS011;17871;31.584;74.450;2023-04-15T08:00:07;55.15;;;11.13;;
31238;SDS011;17871;31.584;74.450;2023-04-15T08:02:39;31.52;;;5.45;;
31238;SDS011;17871;31.584;74.450;2023-04-15T08:05:10;21.95;;;5.97;;
31238;SDS011;17871;31.584;74.450;2023-04-15T08:07:41;20.73;;;5.88;;
31238;SDS011;17871;31.584;74.450;2023-04-15T08:10:10;30.83;;;5.47;;
31238;SDS011;17871;31.584;74.450;2023-04-15T08:12:40;16.55;;;6.32;;
31238;SDS011;17871;31.584;74.450;2023-04-15T08:15:10;33.22;;;5.80;;
31238;SDS011;17871;31.584;74.450;2023-04-15T08:17:40;34.55;;;5.75;;
31238;SDS011;17871;31.584;74.450;2023-04-15T08:20:09;12.35;;;4.57;;
31238;SDS011;17871;31.584;74.450;2023-04-15T08:22:39;31.25;;;5.88;;
31238;SDS011;17871;31.584;74.450;2023-04-15T08:25:08;20.95;;;4.10;;
31238;SDS011;17871;31.584;74.450;2023-04-15T08:27:44;26.90;;;4.72;;
31238;SDS011;17871;31.584;74.450;2023-04-15T08:30:14;19.98;;;4.65;;
31238;SDS011;17871;31.584;74.450;2023-04-15T08:32:46;21.92;;;4.40;;
31238;SDS011;17871;31.584;74.450;2023-04-15T08:35:15;26.33;;;6.22;;
31238;SDS011;17871;31.584;74.450;2023-04-15T08:37:45;18.33;;;5.15;;
31238;SDS011;17871;31.584;74.450;2023-04-15T08:40:14;15.68;;;4.70;;
31238;SDS011;17871;31.584;74.450;2023-04-15T08:42:44;26.50;;;5.18;;
31238;SDS011;17871;31.584;74.450;2023-04-15T08:45:20;20.60;;;5.57;;
31238;SDS011;17871;31.584;74.450;2023-04-15T08:47:51;22.45;;;5.13;;
31238;SDS011;17871;31.584;74.450;2023-04-15T08:50:24;23.10;;;5.40;;
31238;SDS011;17871;31.584;74.450;2023-04-15T08:52:59;21.45;;;4.47;;
31238;SDS011;17871;31.584;74.450;2023-04-15T08:55:31;25.20;;;6.35;;
31238;SDS011;17871;31.584;74.450;2023-04-15T08:58:03;27.00;;;6.38;;
31238;SDS011;17871;31.584;74.450;2023-04-15T09:00:33;27.75;;;5.47;;
31238;SDS011;17871;31.584;74.450;2023-04-15T09:03:06;20.75;;;5.57;;
31238;SDS011;17871;31.584;74.450;2023-04-15T09:05:36;18.05;;;5.95;;
31238;SDS011;17871;31.584;74.450;2023-04-15T09:08:06;32.20;;;5.15;;
31238;SDS011;17871;31.584;74.450;2023-04-15T09:14:48;22.38;;;5.55;;
31238;SDS011;17871;31.584;74.450;2023-04-15T09:17:19;24.30;;;4.40;;
31238;SDS011;17871;31.584;74.450;2023-04-15T09:19:48;30.23;;;5.32;;
31238;SDS011;17871;31.584;74.450;2023-04-15T09:22:35;24.58;;;5.95;;
31238;SDS011;17871;31.584;74.450;2023-04-15T09:32:10;18.80;;;4.43;;
31238;SDS011;17871;31.584;74.450;2023-04-15T09:34:42;18.45;;;4.60;;
31238;SDS011;17871;31.584;74.450;2023-04-15T09:37:12;20.10;;;4.10;;
31238;SDS011;17871;31.584;74.450;2023-04-15T09:39:58;26.50;;;4.60;;
31238;SDS011;17871;31.584;74.450;2023-04-15T09:42:27;27.73;;;4.60;;
31238;SDS011;17871;31.584;74.450;2023-04-15T09:45:06;25.95;;;4.32;;
31238;SDS011;17871;31.584;74.450;2023-04-15T09:47:39;21.30;;;4.18;;
31238;SDS011;17871;31.584;74.450;2023-04-15T09:50:09;20.50;;;4.57;;
31238;SDS011;17871;31.584;74.450;2023-04-15T09:52:42;18.33;;;4.15;;
31238;SDS011;17871;31.584;74.450;2023-04-15T09:55:12;18.23;;;4.53;;
31238;SDS011;17871;31.584;74.450;2023-04-15T09:57:41;18.33;;;4.68;;
31238;SDS011;17871;31.584;74.450;2023-04-15T10:00:16;405.65;;;27.23;;
31238;SDS011;17871;31.584;74.450;2023-04-15T10:02:45;22.00;;;4.60;;
31238;SDS011;17871;31.584;74.450;2023-04-15T10:05:16;50.63;;;6.93;;
31238;SDS011;17871;31.584;74.450;2023-04-15T10:07:45;32.83;;;5.15;;
31238;SDS011;17871;31.584;74.450;2023-04-15T10:10:15;15.65;;;4.03;;
31238;SDS011;17871;31.584;74.450;2023-04-15T10:12:45;15.80;;;4.47;;
31238;SDS011;17871;31.584;74.450;2023-04-15T10:15:15;26.30;;;3.72;;
31238;SDS011;17871;31.584;74.450;2023-04-15T10:17:47;16.48;;;4.03;;
31238;SDS011;17871;31.584;74.450;2023-04-15T10:20:18;14.32;;;4.10;;
31238;SDS011;17871;31.584;74.450;2023-04-15T10:22:48;16.33;;;3.90;;
31238;SDS011;17871;31.584;74.450;2023-04-15T10:25:19;30.60;;;7.75;;
31238;SDS011;17871;31.584;74.450;2023-04-15T10:27:49;18.15;;;5.95;;
31238;SDS011;17871;31.584;74.450;2023-04-15T10:30:19;16.13;;;4.25;;
31238;SDS011;17871;31.584;74.450;2023-04-15T10:32:50;15.65;;;4.63;;
31238;SDS011;17871;31.584;74.450;2023-04-15T10:35:20;13.32;;;3.97;;
31238;SDS011;17871;31.584;74.450;2023-04-15T10:37:50;39.10;;;9.23;;
31238;SDS011;17871;31.584;74.450;2023-04-15T10:40:23;20.35;;;5.50;;
31238;SDS011;17871;31.584;74.450;2023-04-15T10:42:58;25.48;;;6.00;;
31238;SDS011;17871;31.584;74.450;2023-04-15T10:45:32;17.95;;;4.53;;
31238;SDS011;17871;31.584;74.450;2023-04-15T10:48:05;23.85;;;4.65;;
31238;SDS011;17871;31.584;74.450;2023-04-15T10:50:36;27.77;;;6.57;;
31238;SDS011;17871;31.584;74.450;2023-04-15T10:53:06;15.18;;;4.25;;
31238;SDS011;17871;31.584;74.450;2023-04-15T10:55:38;16.63;;;4.40;;
31238;SDS011;17871;31.584;74.450;2023-04-15T10:58:07;16.08;;;3.95;;
31238;SDS011;17871;31.584;74.450;2023-04-15T11:04:54;24.65;;;4.18;;
31238;SDS011;17871;31.584;74.450;2023-04-15T11:07:46;13.65;;;3.80;;
31238;SDS011;17871;31.584;74.450;2023-04-15T11:12:49;26.85;;;5.18;;
31238;SDS011;17871;31.584;74.450;2023-04-15T11:18:14;19.95;;;4.13;;
31238;SDS011;17871;31.584;74.450;2023-04-15T11:20:48;41.17;;;5.43;;
31238;SDS011;17871;31.584;74.450;2023-04-15T11:23:33;16.20;;;4.38;;
31238;SDS011;17871;31.584;74.450;2023-04-15T11:26:19;34.05;;;4.68;;
31238;SDS011;17871;31.584;74.450;2023-04-15T11:28:54;21.30;;;4.97;;
31238;SDS011;17871;31.584;74.450;2023-04-15T11:31:27;35.58;;;9.88;;
31238;SDS011;17871;31.584;74.450;2023-04-15T11:33:59;21.67;;;3.72;;
31238;SDS011;17871;31.584;74.450;2023-04-15T11:36:30;23.60;;;4.45;;
31238;SDS011;17871;31.584;74.450;2023-04-15T11:39:01;34.50;;;6.57;;
31238;SDS011;17871;31.584;74.450;2023-04-15T11:41:31;14.38;;;7.13;;
31238;SDS011;17871;31.584;74.450;2023-04-15T11:44:00;15.23;;;5.10;;
31238;SDS011;17871;31.584;74.450;2023-04-15T11:46:30;26.52;;;6.22;;
31238;SDS011;17871;31.584;74.450;2023-04-15T11:48:59;23.15;;;5.57;;
31238;SDS011;17871;31.584;74.450;2023-04-15T11:51:32;17.60;;;5.38;;
31238;SDS011;17871;31.584;74.450;2023-04-15T11:54:02;22.02;;;5.13;;
31238;SDS011;17871;31.584;74.450;2023-04-15T11:56:32;17.90;;;4.57;;
31238;SDS011;17871;31.584;74.450;2023-04-15T11:59:01;15.25;;;5.50;;
31238;SDS011;17871;31.584;74.450;2023-04-15T12:04:16;22.25;;;4.13;;
31238;SDS011;17871;31.584;74.450;2023-04-15T12:06:52;19.67;;;4.75;;
31238;SDS011;17871;31.584;74.450;2023-04-15T12:09:21;22.23;;;5.28;;
31238;SDS011;17871;31.584;74.450;2023-04-15T12:11:50;20.67;;;4.07;;
31238;SDS011;17871;31.584;74.450;2023-04-15T12:14:28;20.10;;;5.70;;
31238;SDS011;17871;31.584;74.450;2023-04-15T12:17:01;19.92;;;3.92;;
31238;SDS011;17871;31.584;74.450;2023-04-15T12:19:36;29.67;;;4.10;;
31238;SDS011;17871;31.584;74.450;2023-04-15T12:22:10;20.02;;;3.92;;
31238;SDS011;17871;31.584;74.450;2023-04-15T12:24:41;23.05;;;4.53;;
31238;SDS011;17871;31.584;74.450;2023-04-15T12:27:15;18.50;;;4.63;;
31238;SDS011;17871;31.584;74.450;2023-04-15T12:29:44;17.05;;;3.60;;
31238;SDS011;17871;31.584;74.450;2023-04-15T12:32:14;35.45;;;6.78;;
31238;SDS011;17871;31.584;74.450;2023-04-15T12:34:51;16.00;;;4.57;;
31238;SDS011;17871;31.584;74.450;2023-04-15T12:37:21;27.25;;;4.63;;
31238;SDS011;17871;31.584;74.450;2023-04-15T12:39:51;27.50;;;5.43;;
31238;SDS011;17871;31.584;74.450;2023-04-15T12:42:21;36.30;;;4.97;;
31238;SDS011;17871;31.584;74.450;2023-04-15T12:44:50;28.20;;;6.10;;
31238;SDS011;17871;31.584;74.450;2023-04-15T12:47:19;53.08;;;8.75;;
31238;SDS011;17871;31.584;74.450;2023-04-15T12:49:49;56.92;;;7.88;;
31238;SDS011;17871;31.584;74.450;2023-04-15T12:52:19;50.63;;;8.10;;
31238;SDS011;17871;31.584;74.450;2023-04-15T12:54:50;72.10;;;9.35;;
31238;SDS011;17871;31.584;74.450;2023-04-15T12:57:20;61.58;;;8.98;;
31238;SDS011;17871;31.584;74.450;2023-04-15T12:59:49;49.17;;;8.70;;
31238;SDS011;17871;31.584;74.450;2023-04-15T13:02:18;77.72;;;12.38;;
31238;SDS011;17871;31.584;74.450;2023-04-15T13:04:51;69.93;;;8.90;;
31238;SDS011;17871;31.584;74.450;2023-04-15T13:07:21;35.92;;;8.50;;
31238;SDS011;17871;31.584;74.450;2023-04-15T13:09:50;53.60;;;9.50;;
31238;SDS011;17871;31.584;74.450;2023-04-15T13:12:20;48.17;;;10.00;;
31238;SDS011;17871;31.584;74.450;2023-04-15T13:14:49;57.60;;;10.75;;
31238;SDS011;17871;31.584;74.450;2023-04-15T13:17:19;58.83;;;11.90;;
31238;SDS011;17871;31.584;74.450;2023-04-15T13:19:49;60.65;;;11.98;;
31238;SDS011;17871;31.584;74.450;2023-04-15T13:22:18;69.47;;;12.80;;
31238;SDS011;17871;31.584;74.450;2023-04-15T13:24:48;73.40;;;13.63;;
31238;SDS011;17871;31.584;74.450;2023-04-15T13:27:18;73.70;;;14.75;;
31238;SDS011;17871;31.584;74.450;2023-04-15T13:29:48;61.42;;;14.60;;
31238;SDS011;17871;31.584;74.450;2023-04-15T13:32:17;55.35;;;14.88;;
31238;SDS011;17871;31.584;74.450;2023-04-15T13:34:47;61.55;;;14.98;;
31238;SDS011;17871;31.584;74.450;2023-04-15T13:37:16;71.57;;;16.13;;
31238;SDS011;17871;31.584;74.450;2023-04-15T13:39:45;74.53;;;16.20;;
31238;SDS011;17871;31.584;74.450;2023-04-15T13:42:14;58.92;;;15.23;;
31238;SDS011;17871;31.584;74.450;2023-04-15T13:44:44;52.55;;;13.32;;
31238;SDS011;17871;31.584;74.450;2023-04-15T13:47:13;71.93;;;16.08;;
31238;SDS011;17871;31.584;74.450;2023-04-15T13:49:43;75.28;;;18.00;;
31238;SDS011;17871;31.584;74.450;2023-04-15T13:52:12;62.83;;;14.73;;
31238;SDS011;17871;31.584;74.450;2023-04-15T13:54:42;56.97;;;12.45;;
31238;SDS011;17871;31.584;74.450;2023-04-15T13:57:12;85.85;;;13.25;;
31238;SDS011;17871;31.584;74.450;2023-04-15T14:03:54;68.70;;;12.63;;
31238;SDS011;17871;31.584;74.450;2023-04-15T14:06:23;64.50;;;13.32;;
31238;SDS011;17871;31.584;74.450;2023-04-15T14:08:54;61.15;;;12.35;;
31238;SDS011;17871;31.584;74.450;2023-04-15T14:11:24;56.85;;;13.65;;
31238;SDS011;17871;31.584;74.450;2023-04-15T14:13:53;61.70;;;13.40;;
31238;SDS011;17871;31.584;74.450;2023-04-15T14:16:22;64.53;;;12.35;;
31238;SDS011;17871;31.584;74.450;2023-04-15T14:18:52;61.30;;;14.63;;
31238;SDS011;17871;31.584;74.450;2023-04-15T14:21:21;49.58;;;12.50;;
31238;SDS011;17871;31.584;74.450;2023-04-15T14:23:50;71.47;;;13.75;;
31238;SDS011;17871;31.584;74.450;2023-04-15T14:26:19;99.68;;;19.48;;
31238;SDS011;17871;31.584;74.450;2023-04-15T14:28:48;168.10;;;46.30;;
31238;SDS011;17871;31.584;74.450;2023-04-15T14:31:17;90.55;;;18.40;;
31238;SDS011;17871;31.584;74.450;2023-04-15T14:33:47;72.30;;;18.73;;
31238;SDS011;17871;31.584;74.450;2023-04-15T14:36:16;67.32;;;16.25;;
31238;SDS011;17871;31.584;74.450;2023-04-15T14:38:45;55.30;;;18.45;;
31238;SDS011;17871;31.584;74.450;2023-04-15T14:41:15;74.35;;;20.77;;
31238;SDS011;17871;31.584;74.450;2023-04-15T14:43:44;69.30;;;17.83;;
31238;SDS011;17871;31.584;74.450;2023-04-15T14:46:14;68.20;;;18.67;;
31238;SDS011;17871;31.584;74.450;2023-04-15T14:48:43;97.07;;;20.35;;
31238;SDS011;17871;31.584;74.450;2023-04-15T14:51:12;71.28;;;18.83;;
31238;SDS011;17871;31.584;74.450;2023-04-15T14:53:41;56.10;;;16.88;;
31238;SDS011;17871;31.584;74.450;2023-04-15T14:56:11;73.60;;;18.73;;
31238;SDS011;17871;31.584;74.450;2023-04-15T14:58:40;85.88;;;21.13;;
31238;SDS011;17871;31.584;74.450;2023-04-15T15:04:59;69.20;;;21.80;;
31238;SDS011;17871;31.584;74.450;2023-04-15T15:07:29;88.35;;;21.38;;
31238;SDS011;17871;31.584;74.450;2023-04-15T15:09:59;77.25;;;23.08;;
31238;SDS011;17871;31.584;74.450;2023-04-15T15:12:28;76.88;;;21.15;;
31238;SDS011;17871;31.584;74.450;2023-04-15T15:14:57;91.40;;;20.83;;
31238;SDS011;17871;31.584;74.450;2023-04-15T15:17:29;67.28;;;19.33;;
31238;SDS011;17871;31.584;74.450;2023-04-15T15:19:58;66.80;;;17.75;;